sensor_id;sensor_type;location;lat;lon;timestamp;temperature;humidity
60848;DHT22;46681;47.696;9.140;2023-11-18T00:00:52;12.00;58.30
60848;DHT22;46681;47.696;9.140;2023-11-18T00:03:18;12.00;58.40
60848;DHT22;46681;47.696;9.140;2023-11-18T00:05:43;12.00;58.30
60848;DHT22;46681;47.696;9.140;2023-11-18T00:08:09;12.00;58.30
60848;DHT22;46681;47.696;9.140;2023-11-18T00:10:34;12.00;58.30
60848;DHT22;46681;47.696;9.140;2023-11-18T00:13:00;12.00;58.30
60848;DHT22;46681;47.696;9.140;2023-11-18T00:15:25;12.00;58.10
60848;DHT22;46681;47.696;9.140;2023-11-18T00:17:52;12.00;58.00
60848;DHT22;46681;47.696;9.140;2023-11-18T00:20:23;12.00;58.00
60848;DHT22;46681;47.696;9.140;2023-11-18T00:22:48;12.00;57.90
60848;DHT22;46681;47.696;9.140;2023-11-18T00:25:14;11.90;57.90
60848;DHT22;46681;47.696;9.140;2023-11-18T00:27:40;11.90;57.90
60848;DHT22;46681;47.696;9.140;2023-11-18T00:30:07;11.90;57.90
60848;DHT22;46681;47.696;9.140;2023-11-18T00:32:33;11.80;57.80
60848;DHT22;46681;47.696;9.140;2023-11-18T00:34:59;11.80;57.80
60848;DHT22;46681;47.696;9.140;2023-11-18T00:37:24;11.80;57.80
60848;DHT22;46681;47.696;9.140;2023-11-18T00:39:50;11.80;58.10
60848;DHT22;46681;47.696;9.140;2023-11-18T00:42:15;11.80;57.70
60848;DHT22;46681;47.696;9.140;2023-11-18T00:44:41;11.80;57.70
60848;DHT22;46681;47.696;9.140;2023-11-18T00:47:06;11.80;57.60
60848;DHT22;46681;47.696;9.140;2023-11-18T00:49:32;11.80;57.50
60848;DHT22;46681;47.696;9.140;2023-11-18T00:51:57;11.80;57.50
60848;DHT22;46681;47.696;9.140;2023-11-18T00:54:23;11.70;57.40
60848;DHT22;46681;47.696;9.140;2023-11-18T00:56:48;11.70;57.40
60848;DHT22;46681;47.696;9.140;2023-11-18T00:59:14;11.70;57.40
60848;DHT22;46681;47.696;9.140;2023-11-18T01:01:39;11.60;57.40
60848;DHT22;46681;47.696;9.140;2023-11-18T01:04:05;11.60;57.40
60848;DHT22;46681;47.696;9.140;2023-11-18T01:06:30;11.60;57.50
60848;DHT22;46681;47.696;9.140;2023-11-18T01:08:55;11.60;57.90
60848;DHT22;46681;47.696;9.140;2023-11-18T01:11:24;11.50;57.50
60848;DHT22;46681;47.696;9.140;2023-11-18T01:13:50;11.50;57.40
60848;DHT22;46681;47.696;9.140;2023-11-18T01:16:16;11.50;57.50
60848;DHT22;46681;47.696;9.140;2023-11-18T01:18:42;11.60;57.40
60848;DHT22;46681;47.696;9.140;2023-11-18T01:21:08;11.50;57.30
60848;DHT22;46681;47.696;9.140;2023-11-18T01:23:34;11.50;57.20
60848;DHT22;46681;47.696;9.140;2023-11-18T01:26:00;11.50;57.10
60848;DHT22;46681;47.696;9.140;2023-11-18T01:28:25;11.50;57.00
60848;DHT22;46681;47.696;9.140;2023-11-18T01:30:51;11.50;57.00
60848;DHT22;46681;47.696;9.140;2023-11-18T01:33:16;11.50;57.00
60848;DHT22;46681;47.696;9.140;2023-11-18T01:35:42;11.50;57.00
60848;DHT22;46681;47.696;9.140;2023-11-18T01:38:07;11.40;56.90
60848;DHT22;46681;47.696;9.140;2023-11-18T01:40:33;11.30;57.00
60848;DHT22;46681;47.696;9.140;2023-11-18T01:42:59;11.30;57.00
60848;DHT22;46681;47.696;9.140;2023-11-18T01:45:24;11.30;57.00
60848;DHT22;46681;47.696;9.140;2023-11-18T01:47:50;11.30;57.00
60848;DHT22;46681;47.696;9.140;2023-11-18T01:50:16;11.30;57.00
60848;DHT22;46681;47.696;9.140;2023-11-18T01:52:47;11.30;56.90
60848;DHT22;46681;47.696;9.140;2023-11-18T01:55:13;11.30;56.80
60848;DHT22;46681;47.696;9.140;2023-11-18T01:57:39;11.30;56.80
60848;DHT22;46681;47.696;9.140;2023-11-18T02:00:05;11.30;56.80
60848;DHT22;46681;47.696;9.140;2023-11-18T02:02:31;11.30;56.80
60848;DHT22;46681;47.696;9.140;2023-11-18T02:04:57;11.30;57.10
60848;DHT22;46681;47.696;9.140;2023-11-18T02:07:22;11.30;56.70
60848;DHT22;46681;47.696;9.140;2023-11-18T02:09:48;11.30;56.70
60848;DHT22;46681;47.696;9.140;2023-11-18T02:12:31;11.20;56.70
60848;DHT22;46681;47.696;9.140;2023-11-18T02:15:00;11.30;56.80
60848;DHT22;46681;47.696;9.140;2023-11-18T02:17:28;11.20;56.90
60848;DHT22;46681;47.696;9.140;2023-11-18T02:19:56;11.20;56.90
60848;DHT22;46681;47.696;9.140;2023-11-18T02:22:23;11.10;56.90
60848;DHT22;46681;47.696;9.140;2023-11-18T02:24:49;11.20;57.00
60848;DHT22;46681;47.696;9.140;2023-11-18T02:27:14;11.10;56.90
60848;DHT22;46681;47.696;9.140;2023-11-18T02:29:44;11.20;57.00
60848;DHT22;46681;47.696;9.140;2023-11-18T02:32:28;11.20;56.90
60848;DHT22;46681;47.696;9.140;2023-11-18T02:35:25;11.20;56.80
60848;DHT22;46681;47.696;9.140;2023-11-18T02:37:54;11.20;56.80
60848;DHT22;46681;47.696;9.140;2023-11-18T02:40:35;11.30;56.70
60848;DHT22;46681;47.696;9.140;2023-11-18T02:43:03;11.20;56.60
60848;DHT22;46681;47.696;9.140;2023-11-18T02:45:29;11.20;56.60
60848;DHT22;46681;47.696;9.140;2023-11-18T02:47:55;11.20;56.50
60848;DHT22;46681;47.696;9.140;2023-11-18T02:50:21;11.20;56.50
60848;DHT22;46681;47.696;9.140;2023-11-18T02:52:46;11.20;57.00
60848;DHT22;46681;47.696;9.140;2023-11-18T02:55:12;11.10;56.50
60848;DHT22;46681;47.696;9.140;2023-11-18T02:57:38;11.10;56.60
60848;DHT22;46681;47.696;9.140;2023-11-18T03:00:05;11.10;56.60
60848;DHT22;46681;47.696;9.140;2023-11-18T03:02:31;11.10;56.70
60848;DHT22;46681;47.696;9.140;2023-11-18T03:04:57;11.10;56.60
60848;DHT22;46681;47.696;9.140;2023-11-18T03:07:22;11.10;56.60
60848;DHT22;46681;47.696;9.140;2023-11-18T03:09:48;11.10;56.50
60848;DHT22;46681;47.696;9.140;2023-11-18T03:12:13;11.10;56.50
60848;DHT22;46681;47.696;9.140;2023-11-18T03:14:41;11.10;56.40
60848;DHT22;46681;47.696;9.140;2023-11-18T03:17:06;11.10;56.40
60848;DHT22;46681;47.696;9.140;2023-11-18T03:19:33;11.10;56.30
60848;DHT22;46681;47.696;9.140;2023-11-18T03:21:58;11.10;56.20
60848;DHT22;46681;47.696;9.140;2023-11-18T03:24:24;11.10;56.20
60848;DHT22;46681;47.696;9.140;2023-11-18T03:26:49;11.00;56.10
60848;DHT22;46681;47.696;9.140;2023-11-18T03:29:15;11.00;56.20
60848;DHT22;46681;47.696;9.140;2023-11-18T03:31:46;11.00;56.20
60848;DHT22;46681;47.696;9.140;2023-11-18T03:34:12;10.90;56.20
60848;DHT22;46681;47.696;9.140;2023-11-18T03:36:37;10.90;56.30
60848;DHT22;46681;47.696;9.140;2023-11-18T03:39:03;10.80;56.20
60848;DHT22;46681;47.696;9.140;2023-11-18T03:41:29;10.80;56.20
60848;DHT22;46681;47.696;9.140;2023-11-18T03:43:54;10.80;56.20
60848;DHT22;46681;47.696;9.140;2023-11-18T03:46:20;10.80;56.20
60848;DHT22;46681;47.696;9.140;2023-11-18T03:48:45;10.80;56.10
60848;DHT22;46681;47.696;9.140;2023-11-18T03:51:11;10.90;56.00
60848;DHT22;46681;47.696;9.140;2023-11-18T03:53:36;10.80;56.00
60848;DHT22;46681;47.696;9.140;2023-11-18T03:56:02;10.80;55.90
60848;DHT22;46681;47.696;9.140;2023-11-18T03:58:28;10.80;55.90
60848;DHT22;46681;47.696;9.140;2023-11-18T04:00:53;10.80;55.80
60848;DHT22;46681;47.696;9.140;2023-11-18T04:03:18;10.80;55.70
60848;DHT22;46681;47.696;9.140;2023-11-18T04:05:44;10.80;55.70
60848;DHT22;46681;47.696;9.140;2023-11-18T04:08:12;10.80;55.90
60848;DHT22;46681;47.696;9.140;2023-11-18T04:10:38;10.70;55.60
60848;DHT22;46681;47.696;9.140;2023-11-18T04:13:03;10.70;55.60
60848;DHT22;46681;47.696;9.140;2023-11-18T04:15:29;10.60;55.60
60848;DHT22;46681;47.696;9.140;2023-11-18T04:17:54;10.60;55.70
60848;DHT22;46681;47.696;9.140;2023-11-18T04:20:22;10.60;55.60
60848;DHT22;46681;47.696;9.140;2023-11-18T04:22:48;10.60;55.60
60848;DHT22;46681;47.696;9.140;2023-11-18T04:25:13;10.50;55.60
60848;DHT22;46681;47.696;9.140;2023-11-18T04:27:39;10.50;55.60
60848;DHT22;46681;47.696;9.140;2023-11-18T04:30:05;10.50;55.50
60848;DHT22;46681;47.696;9.140;2023-11-18T04:32:30;10.60;55.50
60848;DHT22;46681;47.696;9.140;2023-11-18T04:34:56;10.60;55.40
60848;DHT22;46681;47.696;9.140;2023-11-18T04:37:21;10.50;55.40
60848;DHT22;46681;47.696;9.140;2023-11-18T04:39:47;10.50;55.30
60848;DHT22;46681;47.696;9.140;2023-11-18T04:42:16;10.60;55.30
60848;DHT22;46681;47.696;9.140;2023-11-18T04:44:41;10.50;55.10
60848;DHT22;46681;47.696;9.140;2023-11-18T04:47:07;10.50;55.10
60848;DHT22;46681;47.696;9.140;2023-11-18T04:49:38;10.50;55.10
60848;DHT22;46681;47.696;9.140;2023-11-18T04:52:04;10.50;55.10
60848;DHT22;46681;47.696;9.140;2023-11-18T04:54:29;10.50;55.10
60848;DHT22;46681;47.696;9.140;2023-11-18T04:56:55;10.40;55.20
60848;DHT22;46681;47.696;9.140;2023-11-18T04:59:20;10.40;55.10
60848;DHT22;46681;47.696;9.140;2023-11-18T05:01:46;10.40;55.20
60848;DHT22;46681;47.696;9.140;2023-11-18T05:04:12;10.30;55.20
60848;DHT22;46681;47.696;9.140;2023-11-18T05:06:39;10.30;55.20
60848;DHT22;46681;47.696;9.140;2023-11-18T05:09:04;10.40;55.30
60848;DHT22;46681;47.696;9.140;2023-11-18T05:11:30;10.40;55.20
60848;DHT22;46681;47.696;9.140;2023-11-18T05:13:55;10.40;55.00
60848;DHT22;46681;47.696;9.140;2023-11-18T05:16:21;10.50;54.90
60848;DHT22;46681;47.696;9.140;2023-11-18T05:18:46;10.60;54.80
60848;DHT22;46681;47.696;9.140;2023-11-18T05:21:13;10.70;54.60
60848;DHT22;46681;47.696;9.140;2023-11-18T05:23:39;10.80;54.40
60848;DHT22;46681;47.696;9.140;2023-11-18T05:26:05;10.80;54.20
60848;DHT22;46681;47.696;9.140;2023-11-18T05:28:31;10.90;54.00
60848;DHT22;46681;47.696;9.140;2023-11-18T05:30:56;11.00;53.90
60848;DHT22;46681;47.696;9.140;2023-11-18T05:33:22;11.10;53.70
60848;DHT22;46681;47.696;9.140;2023-11-18T05:35:47;11.10;53.50
60848;DHT22;46681;47.696;9.140;2023-11-18T05:38:13;11.10;53.40
60848;DHT22;46681;47.696;9.140;2023-11-18T05:40:38;11.20;53.40
60848;DHT22;46681;47.696;9.140;2023-11-18T05:43:06;11.10;53.20
60848;DHT22;46681;47.696;9.140;2023-11-18T05:45:31;11.20;53.20
60848;DHT22;46681;47.696;9.140;2023-11-18T05:47:57;11.20;53.00
60848;DHT22;46681;47.696;9.140;2023-11-18T05:50:27;11.20;53.00
60848;DHT22;46681;47.696;9.140;2023-11-18T05:52:53;11.20;52.90
60848;DHT22;46681;47.696;9.140;2023-11-18T05:55:19;11.30;52.80
60848;DHT22;46681;47.696;9.140;2023-11-18T05:57:44;11.30;52.80
60848;DHT22;46681;47.696;9.140;2023-11-18T06:00:15;11.30;52.70
60848;DHT22;46681;47.696;9.140;2023-11-18T06:02:41;11.30;52.60
60848;DHT22;46681;47.696;9.140;2023-11-18T06:05:08;11.30;52.50
60848;DHT22;46681;47.696;9.140;2023-11-18T06:07:33;11.30;52.40
60848;DHT22;46681;47.696;9.140;2023-11-18T06:09:59;11.40;52.40
60848;DHT22;46681;47.696;9.140;2023-11-18T06:12:24;11.40;52.40
60848;DHT22;46681;47.696;9.140;2023-11-18T06:14:50;11.40;52.30
60848;DHT22;46681;47.696;9.140;2023-11-18T06:17:19;11.40;52.30
60848;DHT22;46681;47.696;9.140;2023-11-18T06:19:45;11.40;52.20
60848;DHT22;46681;47.696;9.140;2023-11-18T06:22:10;11.40;52.20
60848;DHT22;46681;47.696;9.140;2023-11-18T06:24:39;11.40;52.20
60848;DHT22;46681;47.696;9.140;2023-11-18T06:27:05;11.40;52.20
60848;DHT22;46681;47.696;9.140;2023-11-18T06:29:30;11.50;52.20
60848;DHT22;46681;47.696;9.140;2023-11-18T06:31:56;11.50;52.20
60848;DHT22;46681;47.696;9.140;2023-11-18T06:34:24;11.50;52.20
60848;DHT22;46681;47.696;9.140;2023-11-18T06:36:50;11.50;52.10
60848;DHT22;46681;47.696;9.140;2023-11-18T06:39:16;11.50;52.10
60848;DHT22;46681;47.696;9.140;2023-11-18T06:41:41;11.50;52.10
60848;DHT22;46681;47.696;9.140;2023-11-18T06:44:10;11.60;52.00
60848;DHT22;46681;47.696;9.140;2023-11-18T06:46:36;11.60;52.00
60848;DHT22;46681;47.696;9.140;2023-11-18T06:49:06;11.60;52.10
60848;DHT22;46681;47.696;9.140;2023-11-18T06:51:38;11.60;52.10
60848;DHT22;46681;47.696;9.140;2023-11-18T06:54:05;11.60;52.10
60848;DHT22;46681;47.696;9.140;2023-11-18T06:56:39;11.60;52.00
60848;DHT22;46681;47.696;9.140;2023-11-18T06:59:12;11.70;52.00
60848;DHT22;46681;47.696;9.140;2023-11-18T07:01:41;11.70;52.10
60848;DHT22;46681;47.696;9.140;2023-11-18T07:04:10;11.70;52.00
60848;DHT22;46681;47.696;9.140;2023-11-18T07:06:36;11.70;51.90
60848;DHT22;46681;47.696;9.140;2023-11-18T07:09:02;11.70;51.90
60848;DHT22;46681;47.696;9.140;2023-11-18T07:11:33;11.70;51.90
60848;DHT22;46681;47.696;9.140;2023-11-18T07:14:03;11.80;51.90
60848;DHT22;46681;47.696;9.140;2023-11-18T07:16:38;11.90;53.50
60848;DHT22;46681;47.696;9.140;2023-11-18T07:19:04;11.90;52.60
60848;DHT22;46681;47.696;9.140;2023-11-18T07:21:29;11.90;52.50
60848;DHT22;46681;47.696;9.140;2023-11-18T07:23:55;11.90;52.30
60848;DHT22;46681;47.696;9.140;2023-11-18T07:26:20;11.90;52.20
60848;DHT22;46681;47.696;9.140;2023-11-18T07:28:55;12.00;52.20
60848;DHT22;46681;47.696;9.140;2023-11-18T07:31:25;11.90;52.10
60848;DHT22;46681;47.696;9.140;2023-11-18T07:33:50;12.00;52.10
60848;DHT22;46681;47.696;9.140;2023-11-18T07:36:18;12.00;52.10
60848;DHT22;46681;47.696;9.140;2023-11-18T07:38:46;12.00;52.20
60848;DHT22;46681;47.696;9.140;2023-11-18T07:41:12;12.00;52.10
60848;DHT22;46681;47.696;9.140;2023-11-18T07:43:38;12.00;52.20
60848;DHT22;46681;47.696;9.140;2023-11-18T07:46:10;12.00;52.30
60848;DHT22;46681;47.696;9.140;2023-11-18T07:48:41;12.00;52.30
60848;DHT22;46681;47.696;9.140;2023-11-18T07:51:06;12.10;52.30
60848;DHT22;46681;47.696;9.140;2023-11-18T07:53:32;12.00;53.00
60848;DHT22;46681;47.696;9.140;2023-11-18T07:56:15;12.10;52.50
60848;DHT22;46681;47.696;9.140;2023-11-18T07:58:47;12.10;52.40
60848;DHT22;46681;47.696;9.140;2023-11-18T08:01:12;12.10;52.30
60848;DHT22;46681;47.696;9.140;2023-11-18T08:03:39;12.10;52.30
60848;DHT22;46681;47.696;9.140;2023-11-18T08:06:05;12.20;52.30
60848;DHT22;46681;47.696;9.140;2023-11-18T08:08:36;12.30;52.30
60848;DHT22;46681;47.696;9.140;2023-11-18T08:11:02;12.40;52.30
60848;DHT22;46681;47.696;9.140;2023-11-18T08:13:28;12.40;52.30
60848;DHT22;46681;47.696;9.140;2023-11-18T08:15:53;12.40;52.20
60848;DHT22;46681;47.696;9.140;2023-11-18T08:18:21;12.50;52.20
60848;DHT22;46681;47.696;9.140;2023-11-18T08:20:47;12.60;52.20
60848;DHT22;46681;47.696;9.140;2023-11-18T08:23:15;12.60;52.40
60848;DHT22;46681;47.696;9.140;2023-11-18T08:25:45;12.70;52.20
60848;DHT22;46681;47.696;9.140;2023-11-18T08:28:24;12.70;52.30
60848;DHT22;46681;47.696;9.140;2023-11-18T08:30:50;12.70;52.30
60848;DHT22;46681;47.696;9.140;2023-11-18T08:33:22;12.80;52.30
60848;DHT22;46681;47.696;9.140;2023-11-18T08:35:57;12.80;52.30
60848;DHT22;46681;47.696;9.140;2023-11-18T08:38:25;12.90;52.30
60848;DHT22;46681;47.696;9.140;2023-11-18T08:40:56;13.00;52.40
60848;DHT22;46681;47.696;9.140;2023-11-18T08:43:28;13.00;52.40
60848;DHT22;46681;47.696;9.140;2023-11-18T08:45:56;13.00;52.30
60848;DHT22;46681;47.696;9.140;2023-11-18T08:48:21;13.10;52.60
60848;DHT22;46681;47.696;9.140;2023-11-18T08:50:50;13.20;52.20
60848;DHT22;46681;47.696;9.140;2023-11-18T08:53:16;13.30;52.20
60848;DHT22;46681;47.696;9.140;2023-11-18T08:55:42;13.30;52.20
60848;DHT22;46681;47.696;9.140;2023-11-18T08:58:09;13.40;52.10
60848;DHT22;46681;47.696;9.140;2023-11-18T09:00:42;13.40;52.00
60848;DHT22;46681;47.696;9.140;2023-11-18T09:03:23;13.50;52.00
60848;DHT22;46681;47.696;9.140;2023-11-18T09:06:02;13.60;51.90
60848;DHT22;46681;47.696;9.140;2023-11-18T09:08:34;13.70;51.90
60848;DHT22;46681;47.696;9.140;2023-11-18T09:11:14;13.80;51.90
60848;DHT22;46681;47.696;9.140;2023-11-18T09:13:44;13.80;51.90
60848;DHT22;46681;47.696;9.140;2023-11-18T09:16:13;13.80;51.90
60848;DHT22;46681;47.696;9.140;2023-11-18T09:18:40;13.90;51.90
60848;DHT22;46681;47.696;9.140;2023-11-18T09:21:18;13.90;51.80
60848;DHT22;46681;47.696;9.140;2023-11-18T09:24:05;13.90;51.90
60848;DHT22;46681;47.696;9.140;2023-11-18T09:26:43;13.90;51.90
60848;DHT22;46681;47.696;9.140;2023-11-18T09:29:29;13.90;51.90
60848;DHT22;46681;47.696;9.140;2023-11-18T09:32:02;14.00;52.00
60848;DHT22;46681;47.696;9.140;2023-11-18T09:34:28;14.00;52.00
60848;DHT22;46681;47.696;9.140;2023-11-18T09:37:01;14.00;52.00
60848;DHT22;46681;47.696;9.140;2023-11-18T09:39:37;14.00;52.10
60848;DHT22;46681;47.696;9.140;2023-11-18T09:42:30;14.00;52.10
60848;DHT22;46681;47.696;9.140;2023-11-18T09:45:16;14.00;52.00
60848;DHT22;46681;47.696;9.140;2023-11-18T09:47:58;14.10;52.00
60848;DHT22;46681;47.696;9.140;2023-11-18T09:50:49;14.10;52.60
60848;DHT22;46681;47.696;9.140;2023-11-18T09:53:20;14.00;53.00
60848;DHT22;46681;47.696;9.140;2023-11-18T09:55:56;14.00;52.40
60848;DHT22;46681;47.696;9.140;2023-11-18T09:58:41;14.00;52.40
60848;DHT22;46681;47.696;9.140;2023-11-18T10:01:21;14.00;52.40
60848;DHT22;46681;47.696;9.140;2023-11-18T10:04:03;14.10;52.50
60848;DHT22;46681;47.696;9.140;2023-11-18T10:06:35;14.10;52.50
60848;DHT22;46681;47.696;9.140;2023-11-18T10:09:14;14.10;52.50
60848;DHT22;46681;47.696;9.140;2023-11-18T10:11:55;14.10;52.60
60848;DHT22;46681;47.696;9.140;2023-11-18T10:14:45;14.10;52.60
60848;DHT22;46681;47.696;9.140;2023-11-18T10:17:16;14.10;52.60
60848;DHT22;46681;47.696;9.140;2023-11-18T10:19:59;14.10;52.60
60848;DHT22;46681;47.696;9.140;2023-11-18T10:22:38;14.20;52.80
60848;DHT22;46681;47.696;9.140;2023-11-18T10:25:05;14.10;52.70
60848;DHT22;46681;47.696;9.140;2023-11-18T10:27:33;14.20;52.80
60848;DHT22;46681;47.696;9.140;2023-11-18T10:30:14;14.20;52.70
60848;DHT22;46681;47.696;9.140;2023-11-18T10:33:04;14.20;52.70
60848;DHT22;46681;47.696;9.140;2023-11-18T10:35:29;14.30;52.70
60848;DHT22;46681;47.696;9.140;2023-11-18T10:37:55;14.30;52.70
60848;DHT22;46681;47.696;9.140;2023-11-18T10:40:23;14.30;52.80
60848;DHT22;46681;47.696;9.140;2023-11-18T10:42:54;14.30;52.80
60848;DHT22;46681;47.696;9.140;2023-11-18T10:45:39;14.30;52.80
60848;DHT22;46681;47.696;9.140;2023-11-18T10:48:22;14.30;52.90
60848;DHT22;46681;47.696;9.140;2023-11-18T10:50:52;14.30;53.40
60848;DHT22;46681;47.696;9.140;2023-11-18T10:53:28;14.40;53.10
60848;DHT22;46681;47.696;9.140;2023-11-18T10:55:54;14.30;53.10
60848;DHT22;46681;47.696;9.140;2023-11-18T10:58:45;14.30;53.20
60848;DHT22;46681;47.696;9.140;2023-11-18T11:01:42;14.30;53.20
60848;DHT22;46681;47.696;9.140;2023-11-18T11:04:21;14.30;53.30
60848;DHT22;46681;47.696;9.140;2023-11-18T11:07:00;14.30;53.40
60848;DHT22;46681;47.696;9.140;2023-11-18T11:09:32;14.30;53.40
60848;DHT22;46681;47.696;9.140;2023-11-18T11:12:00;14.30;53.50
60848;DHT22;46681;47.696;9.140;2023-11-18T11:15:12;14.30;53.60
60848;DHT22;46681;47.696;9.140;2023-11-18T11:17:44;14.30;53.60
60848;DHT22;46681;47.696;9.140;2023-11-18T11:20:34;14.30;53.60
60848;DHT22;46681;47.696;9.140;2023-11-18T11:29:32;14.30;53.60
60848;DHT22;46681;47.696;9.140;2023-11-18T11:35:02;14.40;53.70
60848;DHT22;46681;47.696;9.140;2023-11-18T11:37:46;14.40;53.70
60848;DHT22;46681;47.696;9.140;2023-11-18T11:40:14;14.40;53.70
60848;DHT22;46681;47.696;9.140;2023-11-18T11:42:40;14.40;53.70
60848;DHT22;46681;47.696;9.140;2023-11-18T11:45:19;14.40;53.70
60848;DHT22;46681;47.696;9.140;2023-11-18T11:47:50;14.40;53.80
60848;DHT22;46681;47.696;9.140;2023-11-18T11:50:36;14.40;53.70
60848;DHT22;46681;47.696;9.140;2023-11-18T11:53:14;14.40;53.80
60848;DHT22;46681;47.696;9.140;2023-11-18T11:56:03;14.40;53.80
60848;DHT22;46681;47.696;9.140;2023-11-18T11:58:37;14.40;53.80
60848;DHT22;46681;47.696;9.140;2023-11-18T12:04:16;14.40;53.80
60848;DHT22;46681;47.696;9.140;2023-11-18T12:06:52;14.50;53.90
60848;DHT22;46681;47.696;9.140;2023-11-18T12:09:37;14.50;53.80
60848;DHT22;46681;47.696;9.140;2023-11-18T12:12:27;14.50;53.90
60848;DHT22;46681;47.696;9.140;2023-11-18T12:14:59;14.50;53.90
60848;DHT22;46681;47.696;9.140;2023-11-18T12:17:25;14.50;54.00
60848;DHT22;46681;47.696;9.140;2023-11-18T12:20:01;14.40;54.00
60848;DHT22;46681;47.696;9.140;2023-11-18T12:22:27;14.40;54.10
60848;DHT22;46681;47.696;9.140;2023-11-18T12:33:03;14.50;54.00
60848;DHT22;46681;47.696;9.140;2023-11-18T12:41:35;14.50;54.00
60848;DHT22;46681;47.696;9.140;2023-11-18T12:47:00;14.40;54.00
60848;DHT22;46681;47.696;9.140;2023-11-18T12:49:28;14.40;54.10
60848;DHT22;46681;47.696;9.140;2023-11-18T12:51:59;14.40;54.10
60848;DHT22;46681;47.696;9.140;2023-11-18T12:54:26;14.40;54.10
60848;DHT22;46681;47.696;9.140;2023-11-18T12:56:57;14.40;54.20
60848;DHT22;46681;47.696;9.140;2023-11-18T12:59:32;14.40;54.20
60848;DHT22;46681;47.696;9.140;2023-11-18T13:02:01;14.30;54.20
60848;DHT22;46681;47.696;9.140;2023-11-18T13:04:31;14.30;54.30
60848;DHT22;46681;47.696;9.140;2023-11-18T13:07:03;14.30;54.40
60848;DHT22;46681;47.696;9.140;2023-11-18T13:09:31;14.30;54.40
60848;DHT22;46681;47.696;9.140;2023-11-18T13:11:59;14.20;54.40
60848;DHT22;46681;47.696;9.140;2023-11-18T13:14:32;14.20;54.50
60848;DHT22;46681;47.696;9.140;2023-11-18T13:17:11;14.10;54.50
60848;DHT22;46681;47.696;9.140;2023-11-18T13:19:37;14.10;54.50
60848;DHT22;46681;47.696;9.140;2023-11-18T13:22:08;14.10;54.60
60848;DHT22;46681;47.696;9.140;2023-11-18T13:24:38;14.10;54.60
60848;DHT22;46681;47.696;9.140;2023-11-18T13:27:19;14.10;54.70
60848;DHT22;46681;47.696;9.140;2023-11-18T13:29:47;14.00;54.70
60848;DHT22;46681;47.696;9.140;2023-11-18T13:32:22;14.00;54.70
60848;DHT22;46681;47.696;9.140;2023-11-18T13:35:00;14.00;54.70
60848;DHT22;46681;47.696;9.140;2023-11-18T13:37:37;14.00;54.80
60848;DHT22;46681;47.696;9.140;2023-11-18T13:40:03;13.90;54.80
60848;DHT22;46681;47.696;9.140;2023-11-18T13:42:28;13.90;54.80
60848;DHT22;46681;47.696;9.140;2023-11-18T13:45:00;13.90;54.80
60848;DHT22;46681;47.696;9.140;2023-11-18T13:47:32;13.90;54.80
60848;DHT22;46681;47.696;9.140;2023-11-18T13:50:10;13.80;54.70
60848;DHT22;46681;47.696;9.140;2023-11-18T13:52:46;13.80;54.70
60848;DHT22;46681;47.696;9.140;2023-11-18T13:55:22;13.80;54.70
60848;DHT22;46681;47.696;9.140;2023-11-18T13:57:58;13.80;54.70
60848;DHT22;46681;47.696;9.140;2023-11-18T14:00:32;13.80;54.70
60848;DHT22;46681;47.696;9.140;2023-11-18T14:03:01;13.80;54.70
60848;DHT22;46681;47.696;9.140;2023-11-18T14:05:38;13.80;55.10
60848;DHT22;46681;47.696;9.140;2023-11-18T14:08:16;13.80;54.80
60848;DHT22;46681;47.696;9.140;2023-11-18T14:10:49;13.70;54.80
60848;DHT22;46681;47.696;9.140;2023-11-18T14:13:14;13.70;54.80
60848;DHT22;46681;47.696;9.140;2023-11-18T14:15:54;13.70;54.80
60848;DHT22;46681;47.696;9.140;2023-11-18T14:18:19;13.70;54.80
60848;DHT22;46681;47.696;9.140;2023-11-18T14:20:45;13.70;54.90
60848;DHT22;46681;47.696;9.140;2023-11-18T14:23:11;13.70;54.80
60848;DHT22;46681;47.696;9.140;2023-11-18T14:25:40;13.70;54.80
60848;DHT22;46681;47.696;9.140;2023-11-18T14:28:06;13.70;56.50
60848;DHT22;46681;47.696;9.140;2023-11-18T14:30:42;13.70;55.90
60848;DHT22;46681;47.696;9.140;2023-11-18T14:33:17;13.70;55.00
60848;DHT22;46681;47.696;9.140;2023-11-18T14:36:04;13.70;54.90
60848;DHT22;46681;47.696;9.140;2023-11-18T14:38:42;13.70;54.80
60848;DHT22;46681;47.696;9.140;2023-11-18T14:41:08;13.60;54.80
60848;DHT22;46681;47.696;9.140;2023-11-18T14:43:46;13.70;54.80
60848;DHT22;46681;47.696;9.140;2023-11-18T14:46:27;13.70;54.80
60848;DHT22;46681;47.696;9.140;2023-11-18T14:48:53;13.70;54.80
60848;DHT22;46681;47.696;9.140;2023-11-18T14:54:25;13.70;54.70
60848;DHT22;46681;47.696;9.140;2023-11-18T14:56:53;13.70;54.70
60848;DHT22;46681;47.696;9.140;2023-11-18T14:59:21;13.70;54.70
60848;DHT22;46681;47.696;9.140;2023-11-18T15:01:54;13.80;54.70
60848;DHT22;46681;47.696;9.140;2023-11-18T15:04:20;13.70;54.60
60848;DHT22;46681;47.696;9.140;2023-11-18T15:06:48;13.80;54.60
60848;DHT22;46681;47.696;9.140;2023-11-18T15:09:21;13.70;54.60
60848;DHT22;46681;47.696;9.140;2023-11-18T15:11:56;13.70;54.60
60848;DHT22;46681;47.696;9.140;2023-11-18T15:14:21;13.80;54.60
60848;DHT22;46681;47.696;9.140;2023-11-18T15:16:58;13.80;54.50
60848;DHT22;46681;47.696;9.140;2023-11-18T15:19:34;13.80;54.60
60848;DHT22;46681;47.696;9.140;2023-11-18T15:22:03;13.70;54.60
60848;DHT22;46681;47.696;9.140;2023-11-18T15:24:32;13.70;54.60
60848;DHT22;46681;47.696;9.140;2023-11-18T15:26:57;13.70;54.70
60848;DHT22;46681;47.696;9.140;2023-11-18T15:29:36;13.70;54.70
60848;DHT22;46681;47.696;9.140;2023-11-18T15:32:12;13.70;54.70
60848;DHT22;46681;47.696;9.140;2023-11-18T15:34:39;13.70;54.70
60848;DHT22;46681;47.696;9.140;2023-11-18T15:37:07;13.70;54.70
60848;DHT22;46681;47.696;9.140;2023-11-18T15:39:45;13.70;54.70
60848;DHT22;46681;47.696;9.140;2023-11-18T15:42:11;13.70;54.80
60848;DHT22;46681;47.696;9.140;2023-11-18T15:44:46;13.60;54.80
60848;DHT22;46681;47.696;9.140;2023-11-18T15:47:15;13.60;54.90
60848;DHT22;46681;47.696;9.140;2023-11-18T15:49:53;13.60;56.20
60848;DHT22;46681;47.696;9.140;2023-11-18T15:52:18;13.60;55.50
60848;DHT22;46681;47.696;9.140;2023-11-18T15:54:51;13.60;55.50
60848;DHT22;46681;47.696;9.140;2023-11-18T15:57:39;13.60;55.50
60848;DHT22;46681;47.696;9.140;2023-11-18T16:00:07;13.50;55.40
60848;DHT22;46681;47.696;9.140;2023-11-18T16:02:34;13.50;55.40
60848;DHT22;46681;47.696;9.140;2023-11-18T16:05:15;13.50;55.50
60848;DHT22;46681;47.696;9.140;2023-11-18T16:08:11;13.50;55.50
60848;DHT22;46681;47.696;9.140;2023-11-18T16:10:44;13.50;55.50
60848;DHT22;46681;47.696;9.140;2023-11-18T16:13:20;13.40;55.50
60848;DHT22;46681;47.696;9.140;2023-11-18T16:15:58;13.40;55.50
60848;DHT22;46681;47.696;9.140;2023-11-18T16:18:35;13.40;55.50
60848;DHT22;46681;47.696;9.140;2023-11-18T16:21:01;13.40;55.60